Time;durP1;ratioP1;P1;durP2;ratioP2;P2;SDS_P1;SDS_P2;PMS_P1;PMS_P2;Temp;Humidity;BMP_temperature;BMP_pressure;BME280_temperature;BME280_humidity;BME280_pressure;Samples;Min_cycle;Max_cycle;Signal;HPM_P1;HPM_P2
2022/12/29 00:00:19;;;;;;;3.23;2.10;;;;;;;;;;4984103;28;20213;-62
2022/12/29 00:02:46;;;;;;;2.83;2.20;;;;;;;;;;4992105;28;20221;-62
2022/12/29 00:05:13;;;;;;;2.97;2.10;;;;;;;;;;4990016;28;20205;-61
2022/12/29 00:07:41;;;;;;;3.90;2.00;;;;;;;;;;4990309;28;20225;-61
2022/12/29 00:10:09;;;;;;;5.50;1.90;;;;;;;;;;4993915;28;20208;-61
2022/12/29 00:15:39;;;;;;;1.80;1.70;;;;;;;;;;4984383;28;20200;-60
2022/12/29 00:18:06;;;;;;;1.73;1.63;;;;;;;;;;4982571;28;20285;-60
2022/12/29 00:37:09;;;;;;;2.50;1.40;;;;;;;;;;4987739;28;20212;-61
2022/12/29 00:45:07;;;;;;;2.37;1.60;;;;;;;;;;4986950;28;20232;-60
2022/12/29 00:47:35;;;;;;;2.50;1.30;;;;;;;;;;4985838;28;20225;-59
2022/12/29 00:50:01;;;;;;;1.40;1.30;;;;;;;;;;4985909;28;20208;-61
2022/12/29 00:52:28;;;;;;;2.60;1.50;;;;;;;;;;4983782;28;20206;-61
2022/12/29 00:54:56;;;;;;;1.30;1.20;;;;;;;;;;4989414;28;20201;-61
2022/12/29 00:57:24;;;;;;;1.40;1.30;;;;;;;;;;4989167;28;20193;-61
2022/12/29 00:59:51;;;;;;;1.40;1.20;;;;;;;;;;4988759;28;20205;-61
2022/12/29 01:02:18;;;;;;;2.30;1.50;;;;;;;;;;4986236;28;20205;-61
2022/12/29 01:04:45;;;;;;;1.53;1.40;;;;;;;;;;4984156;28;20209;-61
2022/12/29 01:07:12;;;;;;;1.50;1.40;;;;;;;;;;4986970;28;20217;-61
2022/12/29 01:15:21;;;;;;;1.33;1.30;;;;;;;;;;5136016;27;20338;-61
2022/12/29 01:17:48;;;;;;;2.30;1.60;;;;;;;;;;5110890;28;20463;-61
2022/12/29 01:20:15;;;;;;;2.83;1.73;;;;;;;;;;5119683;28;20201;-61
2022/12/29 01:22:43;;;;;;;2.20;2.00;;;;;;;;;;5111970;28;20201;-61
2022/12/29 01:25:10;;;;;;;3.40;2.00;;;;;;;;;;5120492;28;21328;-60
2022/12/29 01:27:37;;;;;;;2.53;1.87;;;;;;;;;;5115785;28;20193;-61
2022/12/29 01:30:05;;;;;;;2.00;1.90;;;;;;;;;;5115193;28;20201;-61
2022/12/29 01:32:34;;;;;;;1.80;1.70;;;;;;;;;;5119253;28;20200;-59
2022/12/29 01:35:01;;;;;;;2.40;1.70;;;;;;;;;;5116594;28;20204;-61
2022/12/29 01:37:28;;;;;;;1.97;1.80;;;;;;;;;;5113333;28;20202;-59
2022/12/29 01:39:55;;;;;;;4.67;1.97;;;;;;;;;;5113650;28;20211;-61
2022/12/29 01:42:25;;;;;;;2.57;2.03;;;;;;;;;;5112902;27;20193;-58
2022/12/29 01:44:53;;;;;;;1.90;1.70;;;;;;;;;;5118708;28;20190;-61
2022/12/29 01:47:24;;;;;;;3.17;1.93;;;;;;;;;;5117166;28;20193;-61
2022/12/29 01:49:54;;;;;;;1.90;1.80;;;;;;;;;;5117191;28;20247;-62
2022/12/29 01:52:21;;;;;;;2.10;1.90;;;;;;;;;;5117798;28;20320;-62
2022/12/29 01:54:51;;;;;;;3.37;1.90;;;;;;;;;;5116184;28;20224;-61
2022/12/29 01:57:19;;;;;;;2.27;1.70;;;;;;;;;;5118490;28;20201;-61
2022/12/29 01:59:49;;;;;;;4.53;2.07;;;;;;;;;;5123052;28;20193;-61
2022/12/29 02:02:17;;;;;;;2.17;1.97;;;;;;;;;;5120711;28;20204;-60
2022/12/29 02:04:44;;;;;;;1.70;1.40;;;;;;;;;;5123088;28;20193;-59
2022/12/29 02:07:16;;;;;;;1.80;1.70;;;;;;;;;;5113139;28;20197;-62
2022/12/29 02:09:43;;;;;;;2.00;1.90;;;;;;;;;;5117512;28;20197;-61
2022/12/29 02:12:11;;;;;;;2.40;1.80;;;;;;;;;;5112331;28;20216;-61
2022/12/29 02:14:38;;;;;;;3.40;1.93;;;;;;;;;;5115993;28;20228;-61
2022/12/29 02:17:11;;;;;;;2.70;1.90;;;;;;;;;;5113861;28;20197;-60
2022/12/29 02:19:51;;;;;;;1.90;1.80;;;;;;;;;;5113403;28;20213;-61
2022/12/29 02:22:26;;;;;;;2.17;1.93;;;;;;;;;;5124189;28;20200;-61
2022/12/29 02:25:16;;;;;;;2.27;1.97;;;;;;;;;;5115269;28;20201;-60
2022/12/29 02:27:56;;;;;;;3.47;1.90;;;;;;;;;;5098621;28;20198;-61
2022/12/29 02:30:32;;;;;;;2.70;1.80;;;;;;;;;;5101640;28;20193;-60
2022/12/29 02:33:03;;;;;;;1.73;1.63;;;;;;;;;;5098634;28;20197;-61
2022/12/29 02:35:34;;;;;;;2.90;2.10;;;;;;;;;;5101137;28;20206;-61
2022/12/29 02:38:06;;;;;;;5.53;2.00;;;;;;;;;;5097208;28;20200;-61
2022/12/29 02:40:36;;;;;;;2.67;1.73;;;;;;;;;;5101893;28;20217;-61
2022/12/29 02:43:07;;;;;;;2.20;1.60;;;;;;;;;;5103133;28;20198;-61
2022/12/29 02:45:40;;;;;;;3.30;1.77;;;;;;;;;;5099195;28;20201;-61
2022/12/29 02:48:11;;;;;;;2.37;1.73;;;;;;;;;;5096327;28;20198;-61
2022/12/29 02:50:40;;;;;;;3.57;2.10;;;;;;;;;;5100081;28;20198;-61
2022/12/29 02:53:09;;;;;;;2.80;1.80;;;;;;;;;;5102361;28;20254;-61
2022/12/29 02:55:35;;;;;;;3.70;1.90;;;;;;;;;;5099648;28;20221;-60
2022/12/29 02:58:16;;;;;;;2.90;1.80;;;;;;;;;;5105246;28;22825;-61
2022/12/29 03:00:49;;;;;;;3.77;1.90;;;;;;;;;;5102152;28;20197;-61
2022/12/29 03:03:21;;;;;;;2.20;1.90;;;;;;;;;;5106584;28;20201;-62
2022/12/29 03:06:03;;;;;;;2.63;1.70;;;;;;;;;;5107665;28;20299;-60
2022/12/29 03:08:33;;;;;;;4.07;1.80;;;;;;;;;;5102982;28;20206;-60
2022/12/29 03:11:02;;;;;;;3.53;1.60;;;;;;;;;;5096034;28;20197;-61
2022/12/29 03:16:22;;;;;;;4.60;1.60;;;;;;;;;;5103799;28;20217;-60
2022/12/29 03:18:53;;;;;;;3.23;1.80;;;;;;;;;;5093215;28;20190;-61
2022/12/29 03:22:26;;;;;;;2.37;1.50;;;;;;;;;;5107417;28;20311;-60
2022/12/29 03:24:11;;;;;;;2.63;1.60;;;;;;;;;;5101428;28;20513;-61
2022/12/29 03:26:39;;;;;;;4.60;1.70;;;;;;;;;;5099809;28;20203;-60
2022/12/29 03:29:07;;;;;;;4.30;1.70;;;;;;;;;;5097570;28;20295;-62
2022/12/29 03:31:36;;;;;;;2.07;1.47;;;;;;;;;;5094260;28;20209;-61
2022/12/29 03:34:04;;;;;;;2.67;1.40;;;;;;;;;;5097306;28;20224;-62
2022/12/29 03:36:34;;;;;;;2.07;1.53;;;;;;;;;;5101871;28;20206;-62
2022/12/29 03:39:03;;;;;;;2.87;1.60;;;;;;;;;;5098086;28;20206;-62
2022/12/29 03:41:32;;;;;;;2.30;1.50;;;;;;;;;;5098942;28;20202;-61
2022/12/29 03:43:59;;;;;;;3.27;1.53;;;;;;;;;;5097986;28;20247;-62
2022/12/29 03:46:26;;;;;;;3.43;1.60;;;;;;;;;;5094033;28;20435;-57
2022/12/29 03:48:55;;;;;;;3.53;1.40;;;;;;;;;;5094711;28;20209;-60
2022/12/29 03:51:22;;;;;;;2.67;1.43;;;;;;;;;;5101646;28;20204;-61
2022/12/29 03:53:49;;;;;;;4.23;1.70;;;;;;;;;;5098077;28;20190;-62
2022/12/29 03:56:16;;;;;;;2.20;1.23;;;;;;;;;;5099229;28;20213;-61
2022/12/29 03:58:43;;;;;;;3.23;1.63;;;;;;;;;;5093600;28;20201;-61
2022/12/29 04:01:10;;;;;;;1.73;1.20;;;;;;;;;;5100343;28;20197;-61
2022/12/29 04:03:38;;;;;;;3.67;1.40;;;;;;;;;;5094481;28;20198;-61
2022/12/29 04:06:07;;;;;;;2.33;1.43;;;;;;;;;;5102659;28;20195;-61
2022/12/29 04:08:34;;;;;;;2.70;1.40;;;;;;;;;;5094525;28;20197;-61
2022/12/29 04:11:01;;;;;;;2.23;1.40;;;;;;;;;;5097477;28;20204;-61
2022/12/29 04:13:29;;;;;;;2.30;1.47;;;;;;;;;;5096027;28;20238;-62
2022/12/29 04:15:56;;;;;;;3.03;1.70;;;;;;;;;;5098215;28;20254;-62
2022/12/29 04:18:23;;;;;;;1.90;1.60;;;;;;;;;;5096398;28;20209;-61
2022/12/29 04:21:02;;;;;;;2.40;1.60;;;;;;;;;;5100386;28;20211;-62
2022/12/29 04:23:31;;;;;;;1.80;1.37;;;;;;;;;;5098936;28;20197;-61
2022/12/29 04:25:59;;;;;;;1.77;1.60;;;;;;;;;;5100907;28;20201;-61
2022/12/29 04:28:26;;;;;;;1.80;1.37;;;;;;;;;;5102402;28;20209;-62
2022/12/29 04:30:53;;;;;;;3.03;1.40;;;;;;;;;;5101043;28;20221;-62
2022/12/29 04:33:21;;;;;;;2.93;1.40;;;;;;;;;;5094042;28;20202;-61
2022/12/29 04:35:48;;;;;;;1.67;1.57;;;;;;;;;;5099251;28;20229;-61
2022/12/29 04:38:16;;;;;;;3.67;1.57;;;;;;;;;;5093088;28;20198;-61
2022/12/29 04:40:44;;;;;;;1.60;1.43;;;;;;;;;;5093474;28;20195;-58
2022/12/29 04:43:12;;;;;;;3.30;1.60;;;;;;;;;;5100472;28;20251;-61
2022/12/29 04:45:40;;;;;;;1.40;1.30;;;;;;;;;;5097544;28;20201;-62
2022/12/29 04:48:07;;;;;;;2.67;1.50;;;;;;;;;;5090827;28;20202;-61
2022/12/29 04:50:34;;;;;;;1.67;1.40;;;;;;;;;;5095691;28;20194;-62
2022/12/29 04:53:01;;;;;;;4.57;1.40;;;;;;;;;;5095875;28;20228;-61
2022/12/29 04:55:28;;;;;;;2.00;1.30;;;;;;;;;;5098584;28;20217;-62
2022/12/29 04:57:57;;;;;;;1.23;1.13;;;;;;;;;;5096841;28;20202;-61
2022/12/29 05:00:24;;;;;;;1.93;1.50;;;;;;;;;;5104854;28;20217;-62
2022/12/29 05:02:51;;;;;;;2.53;1.63;;;;;;;;;;5103897;28;20208;-62
2022/12/29 05:05:19;;;;;;;1.40;1.30;;;;;;;;;;5099427;28;20208;-62
2022/12/29 05:07:46;;;;;;;2.40;1.30;;;;;;;;;;5103728;28;20205;-60
2022/12/29 05:10:13;;;;;;;1.73;1.30;;;;;;;;;;5092703;28;20214;-62
2022/12/29 05:12:41;;;;;;;2.37;1.50;;;;;;;;;;5098386;28;20194;-62
2022/12/29 05:15:10;;;;;;;4.33;1.30;;;;;;;;;;5097912;28;20248;-62
2022/12/29 05:17:38;;;;;;;1.83;1.23;;;;;;;;;;5092946;28;20198;-61
2022/12/29 05:20:05;;;;;;;2.33;1.40;;;;;;;;;;5094409;28;20214;-59
2022/12/29 05:22:32;;;;;;;2.03;1.50;;;;;;;;;;5102765;28;20209;-62
2022/12/29 05:24:59;;;;;;;3.33;1.50;;;;;;;;;;5097345;28;20213;-61
2022/12/29 05:27:27;;;;;;;1.80;1.53;;;;;;;;;;5094833;28;20209;-61
2022/12/29 05:29:54;;;;;;;2.00;1.80;;;;;;;;;;5091101;28;20206;-61
2022/12/29 05:32:22;;;;;;;2.00;1.80;;;;;;;;;;5093012;28;20205;-60
2022/12/29 05:34:49;;;;;;;3.43;1.60;;;;;;;;;;5093704;28;22059;-61
2022/12/29 05:37:16;;;;;;;2.17;1.47;;;;;;;;;;5092563;28;20198;-59
2022/12/29 05:39:44;;;;;;;2.03;1.43;;;;;;;;;;5096693;28;20242;-62
2022/12/29 05:42:11;;;;;;;2.57;1.63;;;;;;;;;;5089538;28;20213;-62
2022/12/29 05:44:39;;;;;;;1.97;1.50;;;;;;;;;;5094519;28;20204;-62
2022/12/29 05:47:06;;;;;;;1.67;1.20;;;;;;;;;;5095492;28;20209;-62
2022/12/29 05:49:35;;;;;;;2.10;1.30;;;;;;;;;;5097611;28;20200;-62
2022/12/29 05:52:02;;;;;;;1.40;1.30;;;;;;;;;;5102739;28;20208;-61
2022/12/29 05:54:29;;;;;;;2.13;1.60;;;;;;;;;;5096778;28;20202;-61
2022/12/29 05:56:56;;;;;;;2.63;1.70;;;;;;;;;;5097694;28;20291;-62
2022/12/29 05:59:23;;;;;;;3.10;1.80;;;;;;;;;;5092330;28;20206;-61
2022/12/29 06:01:50;;;;;;;2.20;1.67;;;;;;;;;;5103233;28;20225;-61
2022/12/29 06:04:18;;;;;;;1.93;1.60;;;;;;;;;;5100506;28;20209;-60
2022/12/29 06:06:46;;;;;;;2.73;1.80;;;;;;;;;;5097002;28;20225;-60
2022/12/29 06:09:13;;;;;;;1.80;1.60;;;;;;;;;;5099309;28;20212;-61
2022/12/29 06:11:41;;;;;;;1.77;1.67;;;;;;;;;;5098917;28;20198;-61
2022/12/29 06:14:08;;;;;;;3.63;1.90;;;;;;;;;;5098253;28;20229;-60
2022/12/29 06:16:35;;;;;;;5.03;1.80;;;;;;;;;;5100648;28;20215;-61
2022/12/29 06:19:03;;;;;;;2.30;1.90;;;;;;;;;;5092660;28;20200;-61
2022/12/29 06:21:30;;;;;;;1.70;1.60;;;;;;;;;;5093142;28;20202;-60
2022/12/29 06:23:58;;;;;;;2.40;1.70;;;;;;;;;;5099514;28;20213;-59
2022/12/29 06:26:25;;;;;;;4.87;1.70;;;;;;;;;;5090621;28;20212;-61
2022/12/29 06:28:52;;;;;;;1.57;1.47;;;;;;;;;;5094740;28;20233;-61
2022/12/29 06:31:20;;;;;;;3.60;1.80;;;;;;;;;;5093174;28;20225;-61
2022/12/29 06:33:47;;;;;;;2.30;2.10;;;;;;;;;;5095087;28;20198;-60
2022/12/29 06:36:14;;;;;;;3.13;1.90;;;;;;;;;;5093929;28;20225;-61
2022/12/29 06:38:41;;;;;;;4.20;1.53;;;;;;;;;;5095526;28;20194;-62
2022/12/29 06:41:09;;;;;;;2.27;1.60;;;;;;;;;;5103200;28;20201;-61
2022/12/29 06:43:37;;;;;;;2.23;1.70;;;;;;;;;;5098035;28;20217;-60
2022/12/29 06:46:05;;;;;;;2.53;1.63;;;;;;;;;;5101241;28;20191;-60
2022/12/29 06:48:32;;;;;;;1.73;1.43;;;;;;;;;;5103481;28;20210;-62
2022/12/29 06:50:59;;;;;;;2.57;1.40;;;;;;;;;;5104641;28;20201;-61
2022/12/29 06:53:26;;;;;;;5.33;1.70;;;;;;;;;;5099999;28;20210;-60
2022/12/29 06:55:54;;;;;;;2.90;1.70;;;;;;;;;;5101191;28;20225;-61
2022/12/29 06:58:22;;;;;;;1.93;1.70;;;;;;;;;;5104763;28;20197;-61
2022/12/29 07:00:49;;;;;;;3.27;1.73;;;;;;;;;;5102679;28;20207;-61
2022/12/29 07:03:16;;;;;;;2.67;1.43;;;;;;;;;;5100369;28;20206;-61
2022/12/29 07:05:44;;;;;;;2.30;1.77;;;;;;;;;;5103440;28;20323;-61
2022/12/29 07:08:11;;;;;;;3.93;1.80;;;;;;;;;;5101521;28;20206;-58
2022/12/29 07:10:38;;;;;;;2.80;1.83;;;;;;;;;;5101408;28;20197;-61
2022/12/29 07:13:07;;;;;;;3.13;1.70;;;;;;;;;;5095012;28;20214;-61
2022/12/29 07:15:35;;;;;;;3.70;1.63;;;;;;;;;;5099064;28;20221;-62
2022/12/29 07:18:03;;;;;;;2.77;1.70;;;;;;;;;;5100883;28;20206;-61
2022/12/29 07:20:30;;;;;;;1.50;1.40;;;;;;;;;;5104250;28;20206;-61
2022/12/29 07:22:57;;;;;;;1.50;1.40;;;;;;;;;;5102561;28;20201;-61
2022/12/29 07:25:24;;;;;;;2.90;2.13;;;;;;;;;;5095885;28;20190;-60
2022/12/29 07:27:52;;;;;;;2.13;1.57;;;;;;;;;;5095507;28;20194;-61
2022/12/29 07:30:19;;;;;;;1.67;1.43;;;;;;;;;;5099349;28;20209;-61
2022/12/29 07:32:47;;;;;;;1.70;1.60;;;;;;;;;;5097712;28;20197;-60
2022/12/29 07:35:15;;;;;;;1.97;1.60;;;;;;;;;;5099781;28;20221;-60
2022/12/29 07:37:42;;;;;;;4.00;1.67;;;;;;;;;;5100115;28;20210;-62
2022/12/29 07:40:10;;;;;;;1.83;1.50;;;;;;;;;;5101667;28;20207;-61
2022/12/29 07:42:37;;;;;;;3.03;1.87;;;;;;;;;;5097401;28;20201;-59
2022/12/29 07:45:05;;;;;;;2.40;1.70;;;;;;;;;;5103730;28;20212;-61
2022/12/29 07:47:32;;;;;;;1.73;1.50;;;;;;;;;;5105601;28;20205;-61
2022/12/29 07:50:00;;;;;;;2.10;1.63;;;;;;;;;;5096029;28;20293;-61
2022/12/29 07:52:28;;;;;;;2.83;1.60;;;;;;;;;;5096955;28;20201;-62
2022/12/29 07:54:55;;;;;;;3.70;2.70;;;;;;;;;;5097698;28;20202;-61
2022/12/29 07:57:22;;;;;;;3.00;2.20;;;;;;;;;;5096781;28;20244;-61
2022/12/29 07:59:49;;;;;;;3.17;2.20;;;;;;;;;;5101179;28;20213;-62
2022/12/29 08:02:16;;;;;;;1.97;1.70;;;;;;;;;;5093893;28;20209;-61
2022/12/29 08:04:43;;;;;;;3.13;1.80;;;;;;;;;;5098611;28;20204;-62
2022/12/29 08:07:12;;;;;;;4.17;1.50;;;;;;;;;;5093566;28;20198;-62
2022/12/29 08:09:39;;;;;;;2.43;1.60;;;;;;;;;;5094726;28;20225;-62
2022/12/29 08:12:06;;;;;;;1.27;1.20;;;;;;;;;;5096678;28;20217;-61
2022/12/29 08:14:33;;;;;;;2.23;1.57;;;;;;;;;;5093878;28;20240;-60
2022/12/29 08:17:00;;;;;;;1.70;1.20;;;;;;;;;;5096192;28;20213;-61
2022/12/29 08:19:27;;;;;;;2.13;1.43;;;;;;;;;;5094989;28;20201;-61
2022/12/29 08:21:54;;;;;;;2.90;1.20;;;;;;;;;;5092123;28;20295;-60
2022/12/29 08:24:23;;;;;;;1.23;1.10;;;;;;;;;;5096222;28;20205;-61
2022/12/29 08:26:50;;;;;;;1.40;1.30;;;;;;;;;;5091975;28;20195;-59
2022/12/29 08:29:17;;;;;;;2.23;1.10;;;;;;;;;;5099376;28;20201;-59
2022/12/29 08:31:45;;;;;;;1.30;1.00;;;;;;;;;;5093116;28;20205;-60
2022/12/29 08:34:12;;;;;;;2.47;1.20;;;;;;;;;;5101209;28;20228;-60
2022/12/29 08:36:39;;;;;;;3.83;1.23;;;;;;;;;;5101101;28;20221;-61
2022/12/29 08:39:06;;;;;;;1.87;1.00;;;;;;;;;;5100582;28;20216;-61
2022/12/29 08:41:35;;;;;;;1.83;1.10;;;;;;;;;;5105086;28;20214;-61
2022/12/29 08:44:02;;;;;;;1.87;0.93;;;;;;;;;;5103628;28;20276;-60
2022/12/29 08:46:29;;;;;;;1.83;0.87;;;;;;;;;;5102581;28;20205;-61
2022/12/29 08:48:56;;;;;;;1.10;1.00;;;;;;;;;;5098898;28;20213;-62
2022/12/29 08:51:23;;;;;;;2.20;1.20;;;;;;;;;;5095352;28;20198;-60
2022/12/29 08:53:50;;;;;;;3.80;2.40;;;;;;;;;;5102683;28;20198;-61
2022/12/29 08:56:18;;;;;;;1.80;1.40;;;;;;;;;;5101406;28;20221;-60
2022/12/29 08:58:46;;;;;;;2.77;1.70;;;;;;;;;;5102536;28;20190;-61
2022/12/29 09:01:13;;;;;;;2.93;1.60;;;;;;;;;;5099537;28;20202;-61
2022/12/29 09:03:40;;;;;;;0.93;0.83;;;;;;;;;;5100735;28;20213;-61
2022/12/29 09:06:08;;;;;;;1.73;0.90;;;;;;;;;;5107567;28;20197;-60
2022/12/29 09:08:35;;;;;;;1.17;0.70;;;;;;;;;;5096839;28;20202;-61
2022/12/29 09:11:08;;;;;;;2.33;0.80;;;;;;;;;;5104022;28;20206;-61
2022/12/29 09:13:35;;;;;;;1.67;0.90;;;;;;;;;;5102553;28;20234;-61
2022/12/29 09:16:04;;;;;;;1.73;1.07;;;;;;;;;;5100395;28;20226;-60
2022/12/29 09:18:31;;;;;;;2.73;1.53;;;;;;;;;;5100619;28;20203;-61
2022/12/29 09:20:58;;;;;;;2.83;1.87;;;;;;;;;;5096963;28;20201;-61
2022/12/29 09:23:26;;;;;;;3.00;1.63;;;;;;;;;;5097121;28;20202;-61
2022/12/29 09:25:53;;;;;;;4.90;2.90;;;;;;;;;;5095666;28;20210;-61
2022/12/29 09:28:20;;;;;;;2.00;1.77;;;;;;;;;;5096872;28;20202;-61
2022/12/29 09:30:47;;;;;;;2.70;1.00;;;;;;;;;;5096716;28;20194;-61
2022/12/29 09:33:16;;;;;;;2.47;0.80;;;;;;;;;;5094118;28;20212;-61
2022/12/29 09:35:44;;;;;;;3.30;0.73;;;;;;;;;;5104835;28;20214;-60
2022/12/29 09:38:11;;;;;;;3.50;1.00;;;;;;;;;;5105268;28;20206;-60
2022/12/29 09:40:39;;;;;;;2.83;1.00;;;;;;;;;;5100700;28;20213;-58
2022/12/29 09:43:19;;;;;;;2.93;0.93;;;;;;;;;;5101475;28;20209;-62
2022/12/29 09:45:47;;;;;;;2.67;1.00;;;;;;;;;;5103094;28;20205;-61
2022/12/29 09:48:19;;;;;;;2.77;0.93;;;;;;;;;;5103564;28;20208;-61
2022/12/29 09:50:49;;;;;;;3.23;0.97;;;;;;;;;;5100370;28;20212;-60
2022/12/29 09:53:19;;;;;;;2.20;0.90;;;;;;;;;;5102545;28;20206;-60
2022/12/29 09:55:48;;;;;;;3.73;1.20;;;;;;;;;;5099691;28;20206;-61
2022/12/29 09:58:20;;;;;;;3.60;1.07;;;;;;;;;;5101471;28;20213;-61
2022/12/29 10:00:50;;;;;;;3.20;1.27;;;;;;;;;;5107281;28;20217;-61
2022/12/29 10:03:20;;;;;;;4.17;1.50;;;;;;;;;;5105113;28;20221;-60
2022/12/29 10:05:49;;;;;;;2.93;0.90;;;;;;;;;;5107690;28;20204;-61
2022/12/29 10:08:22;;;;;;;4.80;1.20;;;;;;;;;;5104627;28;20210;-60
2022/12/29 10:10:55;;;;;;;6.70;1.40;;;;;;;;;;5112768;28;20209;-60
2022/12/29 10:13:29;;;;;;;4.03;1.17;;;;;;;;;;5113666;28;20241;-60
2022/12/29 10:16:00;;;;;;;4.60;1.37;;;;;;;;;;5109439;28;20209;-60
2022/12/29 10:18:40;;;;;;;3.67;1.30;;;;;;;;;;5104679;28;20201;-60
2022/12/29 10:21:10;;;;;;;3.27;1.17;;;;;;;;;;5107253;28;20197;-59
2022/12/29 10:23:40;;;;;;;3.97;1.60;;;;;;;;;;5106484;28;20555;-61
2022/12/29 10:26:11;;;;;;;5.50;1.50;;;;;;;;;;5104154;28;20253;-61
2022/12/29 10:28:40;;;;;;;4.03;1.40;;;;;;;;;;5102863;28;20214;-61
2022/12/29 10:31:10;;;;;;;3.40;0.90;;;;;;;;;;5102847;28;20202;-60
2022/12/29 10:33:41;;;;;;;3.53;1.13;;;;;;;;;;5108366;28;20209;-61
2022/12/29 10:36:13;;;;;;;8.03;1.97;;;;;;;;;;5103741;28;20209;-61
2022/12/29 10:38:44;;;;;;;4.23;1.30;;;;;;;;;;5103411;28;20198;-58
2022/12/29 10:41:15;;;;;;;3.87;1.17;;;;;;;;;;5106398;28;20278;-62
2022/12/29 10:43:45;;;;;;;2.13;0.97;;;;;;;;;;5106741;28;20196;-62
2022/12/29 10:46:14;;;;;;;2.73;1.00;;;;;;;;;;5106597;28;20209;-61
2022/12/29 10:48:45;;;;;;;3.87;1.00;;;;;;;;;;5099791;28;20206;-61
2022/12/29 10:51:12;;;;;;;3.17;0.97;;;;;;;;;;5100529;28;20296;-62
2022/12/29 10:53:41;;;;;;;2.33;1.17;;;;;;;;;;5109702;28;20201;-61
2022/12/29 10:56:14;;;;;;;3.17;0.90;;;;;;;;;;5107625;28;20214;-61
2022/12/29 10:58:42;;;;;;;2.37;0.90;;;;;;;;;;5103993;28;20200;-61
2022/12/29 11:01:11;;;;;;;4.40;1.30;;;;;;;;;;5103901;28;20202;-61
2022/12/29 11:03:46;;;;;;;3.87;1.07;;;;;;;;;;5104353;28;20205;-60
2022/12/29 11:06:16;;;;;;;3.37;0.93;;;;;;;;;;5104397;28;20216;-61
2022/12/29 11:08:49;;;;;;;4.67;1.27;;;;;;;;;;5105352;28;20197;-59
2022/12/29 11:11:23;;;;;;;4.20;1.33;;;;;;;;;;5104155;28;20217;-60
2022/12/29 11:13:51;;;;;;;3.93;1.30;;;;;;;;;;5106924;28;20249;-61
2022/12/29 11:16:30;;;;;;;4.73;1.33;;;;;;;;;;5104714;28;20475;-61
2022/12/29 11:18:58;;;;;;;2.97;1.03;;;;;;;;;;5105557;28;20246;-60
2022/12/29 11:21:28;;;;;;;4.33;1.30;;;;;;;;;;5105335;28;20209;-61
2022/12/29 11:23:58;;;;;;;4.63;1.20;;;;;;;;;;5105118;28;20218;-60
2022/12/29 11:26:25;;;;;;;2.17;0.90;;;;;;;;;;5107352;28;20262;-61
2022/12/29 11:29:10;;;;;;;4.37;1.53;;;;;;;;;;5107682;28;20212;-61
2022/12/29 11:31:42;;;;;;;3.23;1.00;;;;;;;;;;5104465;28;20205;-61
2022/12/29 11:34:10;;;;;;;5.03;1.00;;;;;;;;;;5103592;28;20202;-61
2022/12/29 11:36:37;;;;;;;3.17;1.10;;;;;;;;;;5101863;28;20220;-61
2022/12/29 11:39:04;;;;;;;1.87;0.83;;;;;;;;;;5105759;28;20212;-60
2022/12/29 11:41:33;;;;;;;4.50;1.37;;;;;;;;;;5105102;28;20214;-61
2022/12/29 11:44:01;;;;;;;3.20;1.40;;;;;;;;;;5101262;28;20208;-61
2022/12/29 11:46:29;;;;;;;3.37;1.37;;;;;;;;;;5112214;28;20209;-61
2022/12/29 11:48:59;;;;;;;4.30;1.53;;;;;;;;;;5106662;28;20212;-61
2022/12/29 11:51:30;;;;;;;4.40;1.40;;;;;;;;;;5103794;28;20341;-60
2022/12/29 11:53:58;;;;;;;3.57;1.30;;;;;;;;;;5102192;28;20198;-61
2022/12/29 11:56:34;;;;;;;1.73;1.03;;;;;;;;;;5109195;28;20197;-61
2022/12/29 11:59:16;;;;;;;3.33;1.10;;;;;;;;;;5099953;28;20208;-61
2022/12/29 12:01:44;;;;;;;3.50;1.40;;;;;;;;;;5102852;28;20255;-61
2022/12/29 12:04:13;;;;;;;4.17;1.53;;;;;;;;;;5101506;28;20212;-61
2022/12/29 12:06:45;;;;;;;4.97;1.67;;;;;;;;;;5106327;28;20194;-61
2022/12/29 12:09:18;;;;;;;4.70;1.30;;;;;;;;;;5103747;28;20204;-61
2022/12/29 12:11:45;;;;;;;3.20;1.60;;;;;;;;;;5103727;28;20212;-60
2022/12/29 12:14:14;;;;;;;2.90;1.50;;;;;;;;;;5106190;28;20238;-61
2022/12/29 12:16:43;;;;;;;3.63;1.40;;;;;;;;;;5106719;28;20212;-60
2022/12/29 12:19:14;;;;;;;2.80;1.10;;;;;;;;;;5108862;28;20227;-61
2022/12/29 12:21:43;;;;;;;3.67;1.50;;;;;;;;;;5101613;28;20213;-61
2022/12/29 12:24:23;;;;;;;3.90;1.30;;;;;;;;;;5104862;28;20206;-61
2022/12/29 12:26:56;;;;;;;1.80;1.13;;;;;;;;;;5109202;28;20204;-61
2022/12/29 12:29:26;;;;;;;2.53;1.50;;;;;;;;;;5105196;28;20212;-61
2022/12/29 12:31:57;;;;;;;3.90;1.50;;;;;;;;;;5105332;28;20252;-61
2022/12/29 12:34:26;;;;;;;3.93;1.30;;;;;;;;;;5101460;28;20279;-60
2022/12/29 12:37:05;;;;;;;2.70;1.20;;;;;;;;;;5102271;28;20208;-61
2022/12/29 12:39:36;;;;;;;4.90;1.20;;;;;;;;;;5098648;28;20190;-61
2022/12/29 12:42:10;;;;;;;3.40;1.23;;;;;;;;;;5101883;28;20202;-60
2022/12/29 12:44:41;;;;;;;3.67;1.40;;;;;;;;;;5102096;28;20202;-61
2022/12/29 12:47:26;;;;;;;5.50;1.50;;;;;;;;;;5103522;28;20198;-61
2022/12/29 12:50:05;;;;;;;4.17;1.50;;;;;;;;;;5100856;28;20202;-61
2022/12/29 12:52:39;;;;;;;2.97;1.20;;;;;;;;;;5099273;28;20240;-60
2022/12/29 12:55:17;;;;;;;6.20;1.70;;;;;;;;;;5105531;28;20198;-61
2022/12/29 12:57:51;;;;;;;3.87;1.40;;;;;;;;;;5100166;28;20206;-62
2022/12/29 13:00:19;;;;;;;3.07;1.50;;;;;;;;;;5103163;28;20209;-61
2022/12/29 13:02:55;;;;;;;4.63;1.60;;;;;;;;;;5104840;28;20217;-61
2022/12/29 13:05:32;;;;;;;3.37;1.20;;;;;;;;;;5101799;28;20212;-61
2022/12/29 13:08:06;;;;;;;4.50;1.60;;;;;;;;;;5099728;28;20190;-61
2022/12/29 13:10:37;;;;;;;3.60;1.53;;;;;;;;;;5102528;28;20202;-61
2022/12/29 13:13:19;;;;;;;5.43;1.23;;;;;;;;;;5099670;28;20212;-62
2022/12/29 13:15:51;;;;;;;3.13;1.27;;;;;;;;;;5097539;28;20206;-61
2022/12/29 13:18:24;;;;;;;3.23;1.17;;;;;;;;;;5107696;28;20209;-61
2022/12/29 13:20:55;;;;;;;2.97;2.00;;;;;;;;;;5105527;28;20194;-61
2022/12/29 13:23:27;;;;;;;3.97;1.87;;;;;;;;;;5106555;28;20197;-61
2022/12/29 13:26:00;;;;;;;6.90;2.23;;;;;;;;;;5105439;28;20209;-61
2022/12/29 13:28:31;;;;;;;5.57;1.57;;;;;;;;;;5104393;28;20386;-61
2022/12/29 13:31:02;;;;;;;6.50;1.67;;;;;;;;;;5107926;28;20201;-61
2022/12/29 13:33:36;;;;;;;4.67;1.73;;;;;;;;;;5095417;28;20206;-62
2022/12/29 13:36:05;;;;;;;5.67;1.57;;;;;;;;;;5103454;28;20276;-61
2022/12/29 13:38:37;;;;;;;4.77;1.60;;;;;;;;;;5106130;28;20229;-61
2022/12/29 13:41:07;;;;;;;3.70;1.30;;;;;;;;;;5100735;28;20213;-62
2022/12/29 13:43:35;;;;;;;3.20;1.30;;;;;;;;;;5100629;28;20206;-61
2022/12/29 13:46:06;;;;;;;4.13;1.33;;;;;;;;;;5101560;28;20258;-61
2022/12/29 13:48:37;;;;;;;5.20;1.43;;;;;;;;;;5105030;28;20416;-60
2022/12/29 13:51:05;;;;;;;4.17;1.40;;;;;;;;;;5098265;28;20205;-60
2022/12/29 13:53:36;;;;;;;4.97;1.40;;;;;;;;;;5103433;28;20209;-61
2022/12/29 13:56:08;;;;;;;4.60;1.30;;;;;;;;;;5106845;28;20250;-61
2022/12/29 13:58:39;;;;;;;3.50;1.47;;;;;;;;;;5103180;28;20226;-61
2022/12/29 14:01:09;;;;;;;3.93;1.20;;;;;;;;;;5104595;28;20217;-60
2022/12/29 14:03:50;;;;;;;4.10;1.27;;;;;;;;;;5100327;28;20206;-61
2022/12/29 14:06:20;;;;;;;4.87;1.27;;;;;;;;;;5103120;28;20212;-60
2022/12/29 14:08:47;;;;;;;2.87;1.30;;;;;;;;;;5102599;28;20198;-61
2022/12/29 14:11:18;;;;;;;5.17;1.57;;;;;;;;;;5095859;28;20213;-59
2022/12/29 14:13:47;;;;;;;5.67;1.60;;;;;;;;;;5104007;28;20243;-61
2022/12/29 14:16:26;;;;;;;6.17;1.50;;;;;;;;;;5105108;28;20201;-61
2022/12/29 14:18:53;;;;;;;5.20;1.63;;;;;;;;;;5102047;28;20232;-61
2022/12/29 14:21:23;;;;;;;5.43;1.43;;;;;;;;;;5105180;28;20206;-61
2022/12/29 14:23:51;;;;;;;5.47;1.47;;;;;;;;;;5103288;28;20213;-60
2022/12/29 14:26:34;;;;;;;4.87;1.47;;;;;;;;;;5106616;28;20198;-59
2022/12/29 14:29:16;;;;;;;7.40;1.50;;;;;;;;;;5104764;28;20193;-61
2022/12/29 14:31:43;;;;;;;5.13;1.50;;;;;;;;;;5104478;28;20212;-61
2022/12/29 14:34:17;;;;;;;6.83;1.93;;;;;;;;;;5102763;28;20210;-59
2022/12/29 14:36:54;;;;;;;5.70;1.93;;;;;;;;;;5105199;28;20526;-61
2022/12/29 14:39:36;;;;;;;6.17;1.50;;;;;;;;;;5105422;28;20224;-61
2022/12/29 14:42:05;;;;;;;5.27;1.73;;;;;;;;;;5104737;28;20198;-60
2022/12/29 14:44:33;;;;;;;9.43;1.97;;;;;;;;;;5106575;28;20205;-60
2022/12/29 14:47:02;;;;;;;8.53;2.00;;;;;;;;;;5109516;28;20274;-62
2022/12/29 14:49:31;;;;;;;5.47;1.90;;;;;;;;;;5107812;28;20199;-62
2022/12/29 14:52:06;;;;;;;6.67;1.97;;;;;;;;;;5106279;28;20250;-61
2022/12/29 14:54:49;;;;;;;7.03;2.00;;;;;;;;;;5102375;28;20216;-61
2022/12/29 14:57:22;;;;;;;9.30;2.30;;;;;;;;;;5102632;28;20202;-61
2022/12/29 14:59:49;;;;;;;3.87;1.57;;;;;;;;;;5105500;28;20219;-61
2022/12/29 15:02:18;;;;;;;6.40;2.03;;;;;;;;;;5102894;28;20209;-62
2022/12/29 15:04:46;;;;;;;6.00;1.97;;;;;;;;;;5100919;28;20239;-61
2022/12/29 15:07:13;;;;;;;4.77;1.80;;;;;;;;;;5102532;28;20201;-61
2022/12/29 15:09:48;;;;;;;5.90;2.13;;;;;;;;;;5105513;28;20209;-62
2022/12/29 15:12:21;;;;;;;4.93;1.27;;;;;;;;;;5103622;28;20205;-62
2022/12/29 15:14:53;;;;;;;6.17;1.60;;;;;;;;;;5099619;28;20230;-60
2022/12/29 15:17:25;;;;;;;5.67;1.67;;;;;;;;;;5098474;28;20220;-60
2022/12/29 15:19:52;;;;;;;5.90;1.50;;;;;;;;;;5099633;28;20190;-60
2022/12/29 15:22:20;;;;;;;5.80;1.83;;;;;;;;;;5099141;28;20221;-61
2022/12/29 15:24:47;;;;;;;4.50;1.50;;;;;;;;;;5099353;28;20194;-61
2022/12/29 15:27:15;;;;;;;7.13;1.50;;;;;;;;;;5101780;28;20201;-61
2022/12/29 15:29:43;;;;;;;6.17;1.47;;;;;;;;;;5101712;28;20194;-60